sim
Sign-in with your pilot id or email,
or register
Callsign
Passwort

Schedule Details

Flight Number: OEO5627
Departure: Jerez Airport (LEJR) at 08:15
Arrival: Hamburg Airport (EDDH) at 11:35

Weather Information
Getting current METAR information for LEJR 161800Z VRB01KT CAVOK 12/03 Q1027
Getting current METAR information for EDDH 161750Z 15004KT 9999 SCT041 M02/M05 Q1020 NOSIG

Schedule Frequency

Route Map